Terminal Aerodrome Forecast
Issued by NWS Des Moines, IA

Home | Current Version | Previous Version | Text Only | Print | Product List | Glossary On
Versions: 1 2 3 4 5 6 7 8 9 10 11 12 13 14 15 16 17 18 19 20 21 22 23 24 25 26 27 28 29 30 31 32 33 34 35 36 37 38 39 40 41 42 43 44 45 46 47 48 49 50
000
FTUS43 KDMX 171826 AAA
TAFALO
TAF AMD
KALO 171826Z 1718/1818 16011KT 1SM -RASN BR OVC005
     FM180000 15004KT 2SM -DZ BR OVC002
     FM180800 35012KT P6SM VCSH OVC005
     FM180900 35013G19KT 1 1/2SM -RA OVC004
     FM181100 34015G23KT 3SM -RASN OVC008
     FM181300 34015G26KT 5SM -SN OVC014
     FM181500 33016G27KT P6SM BKN025 BKN080=

USA.gov is the U.S. government's official web portal to all federal, state and local government web resources and services.